Colorado City, Texas
Current Conditions -  °F | °C
As of 6:15 AM on Saturday 25 Oct 2014 (Local Time) from KSNK Reporting Station
Clear Clear  
Wind Chill: 56°   Ceiling: Unl
Heat Index: 56°   Visibility: 10mi
Dew Point: 54°   Wind: 5mph
Humidity: 92%   Direction: 220°SW
Pressure: 30.17"   Gusts: NA
Location:  32.39°N, 100.86°W
Report Text: KSNK 251115Z AUTO 22004KT 10SM CLR 14/12 A3017 RMK AO2 T01350122
Loading
Personal Weather Stations






























Interactive Weather Map
Tropical Storm Tracking
New forecast layout! Learn more

10-Day Weather Forecast

Advertisements
Track Severe Weather on mobile